createdAt,value
2019-05-21T00:03:42.865Z,15.57
2019-05-21T00:08:47.985Z,15.93
2019-05-21T00:13:52.877Z,16.17
2019-05-21T00:18:58.034Z,16.93
2019-05-21T00:24:03.366Z,15.97
2019-05-21T00:29:44.658Z,16.83
2019-05-21T00:35:27.685Z,17.03
2019-05-21T00:41:09.145Z,17.60
2019-05-21T00:46:14.094Z,16.33
2019-05-21T00:51:19.233Z,18.07
2019-05-21T00:56:24.388Z,17.70
2019-05-21T01:01:30.095Z,18.77
2019-05-21T01:06:35.317Z,18.43
2019-05-21T01:11:40.589Z,18.37
2019-05-21T01:16:46.496Z,20.23
2019-05-21T01:21:52.213Z,19.43
2019-05-21T01:26:57.602Z,19.70
2019-05-21T01:32:02.684Z,20.70
2019-05-21T01:37:08.338Z,21.00
2019-05-21T01:42:13.469Z,20.93
2019-05-21T01:47:18.649Z,22.83
2019-05-21T01:52:23.718Z,23.23
2019-05-21T01:57:28.962Z,22.93
2019-05-21T02:02:34.036Z,24.07
2019-05-21T02:07:39.140Z,24.23
2019-05-21T02:12:44.560Z,26.33
2019-05-21T02:17:49.690Z,25.83
2019-05-21T02:22:54.826Z,27.43
2019-05-21T02:27:59.990Z,26.90
2019-05-21T02:33:05.107Z,27.67
2019-05-21T02:38:10.079Z,30.70
2019-05-21T02:43:15.246Z,28.33
2019-05-21T02:48:20.462Z,28.67
2019-05-21T02:53:25.790Z,28.73
2019-05-21T02:58:30.979Z,29.73
2019-05-21T03:03:37.103Z,30.00
2019-05-21T03:08:42.557Z,29.60
2019-05-21T03:13:47.697Z,28.33
2019-05-21T03:18:52.889Z,28.23
2019-05-21T03:23:58.062Z,27.90
2019-05-21T03:29:03.322Z,23.67
2019-05-21T03:34:08.530Z,36.83
2019-05-21T03:39:13.672Z,30.30
2019-05-21T03:44:18.777Z,31.47
2019-05-21T03:49:24.238Z,28.20
2019-05-21T03:54:29.531Z,33.13
2019-05-21T03:59:34.903Z,33.30
2019-05-21T04:04:39.876Z,32.77
2019-05-21T04:09:45.371Z,33.03
2019-05-21T04:14:52.110Z,33.57
2019-05-21T04:19:57.075Z,33.43
2019-05-21T04:25:02.070Z,32.70
2019-05-21T04:30:11.227Z,31.67
2019-05-21T04:35:15.984Z,42.67
2019-05-21T04:40:20.936Z,38.07
2019-05-21T04:45:25.900Z,44.93
2019-05-21T04:50:31.338Z,40.80
2019-05-21T04:55:36.769Z,45.93
2019-05-21T05:00:41.770Z,44.67
2019-05-21T05:05:46.710Z,50.47
2019-05-21T05:10:51.904Z,51.17
2019-05-21T05:15:57.281Z,52.23
2019-05-21T05:21:02.577Z,52.93
2019-05-21T05:26:08.128Z,49.17
2019-05-21T05:31:15.481Z,55.70
2019-05-21T05:36:20.341Z,58.03
2019-05-21T05:41:25.305Z,57.97
2019-05-21T05:46:30.585Z,55.30
2019-05-21T05:51:36.014Z,51.57
2019-05-21T05:56:41.256Z,48.30
2019-05-21T06:01:46.208Z,49.27
2019-05-21T06:06:51.165Z,44.50
2019-05-21T06:11:56.368Z,48.10
2019-05-21T06:17:01.787Z,46.93
2019-05-21T06:22:07.415Z,47.07
2019-05-21T06:27:12.735Z,47.30
2019-05-21T06:32:17.955Z,47.27
2019-05-21T06:37:23.236Z,46.77
2019-05-21T06:42:28.487Z,45.73
2019-05-21T06:47:34.129Z,46.83
2019-05-21T06:52:39.809Z,47.60
2019-05-21T06:57:45.297Z,49.00
2019-05-21T07:02:50.766Z,50.33
2019-05-21T07:07:56.101Z,46.20
2019-05-21T07:13:01.373Z,46.80
2019-05-21T07:18:06.489Z,46.97
2019-05-21T07:23:11.466Z,49.93
2019-05-21T07:28:16.555Z,50.13
2019-05-21T07:33:21.754Z,51.77
2019-05-21T07:38:26.945Z,52.27
2019-05-21T07:43:31.931Z,50.83
2019-05-21T07:48:37.077Z,49.10
2019-05-21T07:53:42.635Z,43.77
2019-05-21T07:58:48.195Z,44.23
2019-05-21T08:03:53.401Z,46.73
2019-05-21T08:09:12.333Z,45.30
2019-05-21T08:14:06.579Z,40.30
2019-05-21T08:19:12.195Z,38.83
2019-05-21T08:24:17.796Z,36.20
2019-05-21T08:29:23.635Z,35.10
2019-05-21T08:34:29.107Z,34.87
2019-05-21T08:39:34.518Z,34.00
2019-05-21T08:44:40.115Z,33.87
2019-05-21T08:49:45.237Z,32.13
2019-05-21T08:54:51.208Z,31.70
2019-05-21T08:59:56.956Z,26.10
2019-05-21T09:05:02.235Z,22.47
2019-05-21T09:10:08.918Z,21.47
2019-05-21T09:15:15.040Z,23.80
2019-05-21T09:20:21.197Z,24.20
2019-05-21T09:25:26.225Z,23.60
2019-05-21T09:30:31.596Z,21.67
2019-05-21T09:35:36.945Z,20.73
2019-05-21T09:40:42.214Z,18.33
2019-05-21T09:45:47.586Z,18.87
2019-05-21T09:50:52.556Z,18.33
2019-05-21T09:55:59.305Z,20.13
2019-05-21T10:01:18.026Z,19.70
2019-05-21T10:06:23.436Z,20.87
2019-05-21T10:11:28.416Z,18.93
2019-05-21T10:16:33.806Z,19.67
2019-05-21T10:21:39.036Z,16.70
2019-05-21T10:26:44.015Z,17.50
2019-05-21T10:31:49.006Z,17.40
2019-05-21T10:36:54.098Z,18.77
2019-05-21T10:41:59.416Z,21.63
2019-05-21T10:47:05.196Z,21.27
2019-05-21T10:52:10.558Z,19.20
2019-05-21T10:57:15.868Z,18.57
2019-05-21T11:02:22.705Z,16.17
2019-05-21T11:07:28.782Z,18.53
2019-05-21T11:12:33.955Z,24.40
2019-05-21T11:17:53.386Z,12.70
2019-05-21T11:22:45.534Z,14.00
2019-05-21T11:27:50.505Z,14.10
2019-05-21T11:32:56.037Z,13.40
2019-05-21T11:38:01.336Z,12.87
2019-05-21T11:43:06.315Z,12.60
2019-05-21T11:48:11.385Z,12.23
2019-05-21T11:53:16.695Z,9.93
2019-05-21T11:58:22.048Z,9.67
2019-05-21T12:03:27.619Z,10.07
2019-05-21T12:08:33.661Z,10.47
2019-05-21T12:13:39.300Z,10.20
2019-05-21T12:18:44.779Z,9.80
2019-05-21T12:23:50.172Z,10.63
2019-05-21T12:28:55.931Z,9.57
2019-05-21T12:34:01.610Z,10.83
2019-05-21T12:39:14.174Z,10.13
2019-05-21T12:44:15.010Z,9.50
2019-05-21T12:49:20.569Z,9.63
2019-05-21T12:54:26.249Z,9.23
2019-05-21T12:59:31.699Z,8.70
2019-05-21T13:04:37.056Z,7.43
2019-05-21T13:09:42.371Z,8.97
2019-05-21T13:14:47.409Z,8.77
2019-05-21T13:19:52.850Z,8.63
2019-05-21T13:24:58.255Z,7.50
2019-05-21T13:30:03.906Z,8.53
2019-05-21T13:35:10.405Z,5.40
2019-05-21T13:40:19.170Z,5.30
2019-05-21T13:45:24.782Z,5.87
2019-05-21T13:50:30.130Z,5.80
2019-05-21T13:55:35.497Z,5.93
2019-05-21T14:00:45.450Z,5.37
2019-05-21T14:05:50.969Z,4.80
2019-05-21T14:10:56.409Z,4.77
2019-05-21T14:16:02.054Z,6.53
2019-05-21T14:21:08.931Z,4.50
2019-05-21T14:26:14.810Z,4.20
2019-05-21T14:31:20.573Z,5.33
2019-05-21T14:36:25.860Z,4.20
2019-05-21T14:41:31.330Z,5.30
2019-05-21T14:46:36.891Z,4.60
2019-05-21T14:51:42.090Z,4.07
2019-05-21T14:56:48.015Z,4.10
2019-05-21T15:01:53.529Z,3.53
2019-05-21T15:06:59.169Z,4.20
2019-05-21T15:12:04.730Z,5.10
2019-05-21T15:17:10.050Z,5.83
2019-05-21T15:22:15.734Z,5.97
2019-05-21T15:27:21.010Z,6.87
2019-05-21T15:32:27.705Z,6.47
2019-05-21T15:37:33.977Z,6.77
2019-05-21T15:42:39.451Z,7.53
2019-05-21T15:47:45.256Z,7.85
2019-05-21T15:52:50.441Z,7.90
2019-05-21T15:57:55.883Z,8.30
2019-05-21T16:03:01.130Z,9.03
2019-05-21T16:08:06.890Z,10.07
2019-05-21T16:13:12.490Z,11.67
2019-05-21T16:18:17.933Z,16.70
2019-05-21T16:23:23.484Z,13.33
2019-05-21T16:28:28.876Z,13.70
2019-05-21T16:33:35.087Z,14.03
2019-05-21T16:38:40.804Z,13.70
2019-05-21T16:43:46.325Z,16.60
2019-05-21T16:48:51.445Z,20.60
2019-05-21T16:53:56.471Z,9.80
2019-05-21T16:59:01.637Z,7.07
2019-05-21T17:15:10.131Z,9.83
2019-05-21T17:20:16.716Z,7.03
2019-05-21T17:25:21.710Z,8.80
2019-05-21T17:30:27.020Z,9.13
2019-05-21T17:35:32.282Z,9.70
2019-05-21T17:40:37.637Z,9.20
2019-05-21T17:45:42.950Z,9.47
2019-05-21T17:50:48.560Z,10.77
2019-05-21T17:55:54.189Z,11.57
2019-05-21T18:01:01.033Z,12.00
2019-05-21T18:06:07.777Z,14.40
2019-05-21T18:11:14.550Z,15.13
2019-05-21T18:16:21.099Z,14.73
2019-05-21T18:21:27.325Z,13.43
2019-05-21T18:26:33.311Z,14.80
2019-05-21T18:31:38.906Z,19.30
2019-05-21T18:36:45.226Z,55.13
2019-05-21T18:41:50.669Z,36.60
2019-05-21T18:46:56.470Z,24.80
2019-05-21T18:52:01.993Z,24.80
2019-05-21T18:57:07.590Z,23.63
2019-05-21T19:02:14.770Z,21.77
2019-05-21T19:07:20.534Z,20.40
2019-05-21T19:12:37.439Z,19.53
2019-05-21T19:17:35.857Z,18.90
2019-05-21T19:22:40.635Z,18.90
2019-05-21T19:27:47.194Z,20.37
2019-05-21T19:32:52.635Z,21.07
2019-05-21T19:37:57.995Z,18.83
2019-05-21T19:43:03.316Z,17.80
2019-05-21T19:48:09.068Z,15.50
2019-05-21T19:53:14.760Z,12.60
2019-05-21T19:58:20.468Z,12.00
2019-05-21T20:03:26.236Z,13.33
2019-05-21T20:08:31.726Z,13.13
2019-05-21T20:13:37.195Z,12.13
2019-05-21T20:18:43.395Z,12.33
2019-05-21T20:23:49.048Z,11.30
2019-05-21T20:28:54.957Z,12.27
2019-05-21T20:34:01.723Z,13.93
2019-05-21T20:39:09.932Z,14.20
2019-05-21T20:44:16.959Z,13.67
2019-05-21T20:49:23.116Z,13.83
2019-05-21T20:54:28.746Z,14.10
2019-05-21T20:59:34.061Z,15.13
2019-05-21T21:04:40.114Z,15.50
2019-05-21T21:09:46.529Z,15.60
2019-05-21T21:14:52.745Z,15.50
2019-05-21T21:19:59.908Z,16.57
2019-05-21T21:25:08.065Z,15.27
2019-05-21T21:30:14.871Z,14.50
2019-05-21T21:35:20.777Z,14.97
2019-05-21T21:40:26.190Z,15.03
2019-05-21T21:45:31.540Z,16.33
2019-05-21T21:50:38.916Z,15.70
2019-05-21T21:55:44.292Z,17.67
2019-05-21T22:00:59.894Z,17.60
2019-05-21T22:06:09.339Z,18.43
2019-05-21T22:11:14.852Z,18.57
2019-05-21T22:16:20.373Z,18.47
2019-05-21T22:21:26.538Z,17.13
2019-05-21T22:26:32.015Z,15.00
2019-05-21T22:31:37.708Z,16.70
2019-05-21T22:36:42.894Z,17.27
2019-05-21T22:41:47.888Z,16.63
2019-05-21T22:46:53.486Z,14.10
2019-05-21T22:51:58.935Z,16.80
2019-05-21T22:57:04.133Z,14.13
2019-05-21T23:02:10.820Z,16.20
2019-05-21T23:07:16.507Z,17.07
2019-05-21T23:12:21.573Z,16.17
2019-05-21T23:17:29.334Z,17.40
2019-05-21T23:22:36.374Z,13.10
2019-05-21T23:27:42.130Z,15.30
2019-05-21T23:32:47.460Z,15.70
2019-05-21T23:37:53.314Z,14.50
2019-05-21T23:42:58.754Z,16.10
2019-05-21T23:48:05.315Z,14.00
2019-05-21T23:53:11.274Z,16.43
2019-05-21T23:58:17.889Z,17.87
